Time;durP1;ratioP1;P1;durP2;ratioP2;P2;SDS_P1;SDS_P2;PMS_P1;PMS_P2;Temp;Humidity;BMP_temperature;BMP_pressure;BME280_temperature;BME280_humidity;BME280_pressure;Samples;Min_cycle;Max_cycle;Signal;HPM_P1;HPM_P2
2021/12/27 00:00:52;;;;;;;57.65;26.10;;;;;;;;;;5039939;28;20032;-50
2021/12/27 00:03:18;;;;;;;61.63;25.15;;;;;;;;;;5042973;28;20025;-52
2021/12/27 00:05:44;;;;;;;45.38;18.70;;;;;;;;;;5048236;28;20075;-52
2021/12/27 00:08:09;;;;;;;37.13;15.50;;;;;;;;;;5040681;28;20036;-52
2021/12/27 00:10:35;;;;;;;49.42;16.48;;;;;;;;;;5042993;28;20497;-50
2021/12/27 00:13:02;;;;;;;41.78;17.50;;;;;;;;;;5044636;28;20278;-52
2021/12/27 00:15:28;;;;;;;35.13;15.18;;;;;;;;;;5048944;28;20588;-54
2021/12/27 00:17:53;;;;;;;38.92;15.85;;;;;;;;;;5049630;28;20112;-50
2021/12/27 00:20:20;;;;;;;44.17;16.45;;;;;;;;;;5040471;28;20044;-50
2021/12/27 00:22:47;;;;;;;35.88;15.75;;;;;;;;;;5047545;28;20462;-50
2021/12/27 00:25:13;;;;;;;34.25;13.93;;;;;;;;;;5052515;28;20028;-53
2021/12/27 00:27:40;;;;;;;32.70;13.95;;;;;;;;;;5039349;28;20037;-49
2021/12/27 00:30:07;;;;;;;34.40;14.25;;;;;;;;;;5040785;28;20044;-50
2021/12/27 00:32:36;;;;;;;28.33;13.45;;;;;;;;;;5042786;28;20033;-54
2021/12/27 00:35:06;;;;;;;20.67;8.98;;;;;;;;;;5047186;28;20041;-53
2021/12/27 00:37:31;;;;;;;30.48;11.38;;;;;;;;;;5044249;28;20472;-53
2021/12/27 00:39:57;;;;;;;22.15;8.38;;;;;;;;;;5042912;28;20053;-52
2021/12/27 00:42:22;;;;;;;23.88;9.50;;;;;;;;;;5033139;28;20078;-50
2021/12/27 00:44:48;;;;;;;20.50;9.13;;;;;;;;;;5048178;28;20029;-52
2021/12/27 00:47:14;;;;;;;17.25;7.80;;;;;;;;;;5040706;28;20043;-50
2021/12/27 00:49:40;;;;;;;23.52;7.78;;;;;;;;;;5046783;28;20052;-54
2021/12/27 00:52:06;;;;;;;16.05;7.20;;;;;;;;;;5044400;28;20086;-54
2021/12/27 00:54:31;;;;;;;11.80;5.28;;;;;;;;;;5039260;28;20029;-54
2021/12/27 00:56:56;;;;;;;22.63;6.93;;;;;;;;;;5039826;28;20040;-53
2021/12/27 00:59:22;;;;;;;16.15;7.15;;;;;;;;;;5036221;28;20036;-50
2021/12/27 01:01:48;;;;;;;16.08;5.90;;;;;;;;;;5031433;28;20396;-54
2021/12/27 01:04:13;;;;;;;14.40;5.57;;;;;;;;;;5040332;28;20028;-51
2021/12/27 01:06:39;;;;;;;15.02;5.75;;;;;;;;;;5040143;28;20025;-49
2021/12/27 01:09:04;;;;;;;17.52;6.43;;;;;;;;;;5035158;28;20053;-52
2021/12/27 01:11:56;;;;;;;15.05;6.15;;;;;;;;;;5032141;28;20663;-52
2021/12/27 01:14:38;;;;;;;19.67;6.05;;;;;;;;;;5040033;28;20230;-52
2021/12/27 01:17:05;;;;;;;15.23;5.63;;;;;;;;;;5039481;28;20029;-52
2021/12/27 01:19:30;;;;;;;12.40;6.35;;;;;;;;;;5038490;28;20103;-51
2021/12/27 01:21:56;;;;;;;24.33;6.60;;;;;;;;;;5039727;28;20551;-53
2021/12/27 01:24:21;;;;;;;17.55;6.38;;;;;;;;;;5033726;28;20120;-53
2021/12/27 01:26:47;;;;;;;16.17;6.38;;;;;;;;;;5035322;28;20411;-50
2021/12/27 01:29:12;;;;;;;19.38;6.70;;;;;;;;;;5041956;28;20407;-54
2021/12/27 01:31:38;;;;;;;14.52;6.07;;;;;;;;;;5040932;28;20087;-51
2021/12/27 01:34:04;;;;;;;16.70;6.35;;;;;;;;;;5037732;28;20041;-52
2021/12/27 01:36:32;;;;;;;15.73;5.90;;;;;;;;;;5037200;28;20029;-50
2021/12/27 01:39:02;;;;;;;14.80;5.70;;;;;;;;;;5043178;28;20365;-54
2021/12/27 01:41:28;;;;;;;16.13;5.82;;;;;;;;;;5041803;28;20035;-51
2021/12/27 01:43:54;;;;;;;15.43;5.80;;;;;;;;;;5039261;28;20023;-51
2021/12/27 01:46:24;;;;;;;12.88;5.13;;;;;;;;;;5036369;28;20035;-49
2021/12/27 01:48:54;;;;;;;10.02;4.63;;;;;;;;;;5035109;28;20075;-52
2021/12/27 01:51:25;;;;;;;12.27;4.93;;;;;;;;;;5042244;28;20028;-51
2021/12/27 01:53:51;;;;;;;12.55;4.68;;;;;;;;;;5041299;28;20033;-50
2021/12/27 01:56:20;;;;;;;13.68;4.45;;;;;;;;;;5046336;28;20434;-52
2021/12/27 01:58:47;;;;;;;9.90;4.60;;;;;;;;;;5038491;28;20017;-50
2021/12/27 02:01:13;;;;;;;9.65;4.72;;;;;;;;;;5037238;28;20033;-52
2021/12/27 02:03:41;;;;;;;9.25;4.30;;;;;;;;;;5037996;28;20033;-51
2021/12/27 02:06:08;;;;;;;14.50;4.30;;;;;;;;;;5038140;28;20530;-50
2021/12/27 02:08:36;;;;;;;15.25;4.47;;;;;;;;;;5035462;28;20054;-49
2021/12/27 02:11:01;;;;;;;15.32;4.80;;;;;;;;;;5035102;28;20503;-54
2021/12/27 02:13:27;;;;;;;11.45;4.93;;;;;;;;;;5039256;28;20029;-51
2021/12/27 02:15:53;;;;;;;8.80;4.95;;;;;;;;;;5042691;28;20385;-51
2021/12/27 02:18:19;;;;;;;17.95;5.90;;;;;;;;;;5038627;28;20112;-51
2021/12/27 02:20:45;;;;;;;11.70;5.35;;;;;;;;;;5041523;28;20458;-50
2021/12/27 02:23:17;;;;;;;13.38;5.68;;;;;;;;;;5036636;28;20271;-50
2021/12/27 02:25:44;;;;;;;;;;;;;;;;;;5040656;28;20472;-52
2021/12/27 02:28:10;;;;;;;13.40;5.07;;;;;;;;;;5039670;28;19944;-50
2021/12/27 02:30:38;;;;;;;26.08;5.65;;;;;;;;;;5030353;28;20482;-53
2021/12/27 02:33:06;;;;;;;19.52;5.70;;;;;;;;;;5042515;28;20449;-49
2021/12/27 02:35:41;;;;;;;13.60;5.88;;;;;;;;;;5042577;28;20041;-50
2021/12/27 02:38:09;;;;;;;15.32;4.72;;;;;;;;;;5038795;28;20121;-53
2021/12/27 02:40:37;;;;;;;17.90;6.18;;;;;;;;;;5039581;28;20044;-51
2021/12/27 02:43:07;;;;;;;16.67;6.13;;;;;;;;;;5045644;28;20143;-50
2021/12/27 02:45:39;;;;;;;13.68;6.00;;;;;;;;;;5039512;28;20492;-54
2021/12/27 02:48:05;;;;;;;21.88;6.88;;;;;;;;;;5047722;28;20039;-49
2021/12/27 02:50:32;;;;;;;16.55;6.30;;;;;;;;;;5033830;28;20438;-51
2021/12/27 02:52:59;;;;;;;13.63;6.95;;;;;;;;;;5030848;28;20048;-50
2021/12/27 02:55:25;;;;;;;18.60;6.30;;;;;;;;;;5035585;28;20075;-49
2021/12/27 02:57:52;;;;;;;15.73;6.60;;;;;;;;;;5040133;28;20041;-50
2021/12/27 03:00:20;;;;;;;21.33;6.47;;;;;;;;;;5038319;28;20109;-52
2021/12/27 03:02:48;;;;;;;20.60;8.07;;;;;;;;;;5032402;28;20035;-51
2021/12/27 03:05:16;;;;;;;22.77;7.22;;;;;;;;;;5034866;28;20055;-50
2021/12/27 03:07:43;;;;;;;18.92;7.07;;;;;;;;;;5033336;28;20123;-50
2021/12/27 03:10:11;;;;;;;21.73;6.43;;;;;;;;;;5035259;28;20044;-50
2021/12/27 03:12:38;;;;;;;18.48;6.22;;;;;;;;;;5036043;28;20029;-49
2021/12/27 03:15:08;;;;;;;17.92;7.45;;;;;;;;;;5040900;28;20059;-53
2021/12/27 03:17:35;;;;;;;15.82;5.88;;;;;;;;;;5039140;28;20115;-51
2021/12/27 03:20:02;;;;;;;15.82;6.30;;;;;;;;;;5040126;28;20074;-52
2021/12/27 03:22:28;;;;;;;20.77;6.00;;;;;;;;;;5038648;28;20580;-51
2021/12/27 03:24:53;;;;;;;17.90;5.10;;;;;;;;;;5039634;28;20480;-51
2021/12/27 03:27:18;;;;;;;15.80;5.43;;;;;;;;;;5045049;28;20043;-51
2021/12/27 03:29:44;;;;;;;17.80;5.55;;;;;;;;;;5032075;28;20545;-51
2021/12/27 03:32:09;;;;;;;13.98;4.90;;;;;;;;;;5033884;28;20119;-52
2021/12/27 03:34:41;;;;;;;21.17;6.90;;;;;;;;;;5041449;28;20044;-53
2021/12/27 03:37:08;;;;;;;12.35;6.03;;;;;;;;;;5034867;28;20072;-52
2021/12/27 03:39:34;;;;;;;12.80;5.60;;;;;;;;;;5034432;28;20132;-52
2021/12/27 03:41:59;;;;;;;18.25;5.88;;;;;;;;;;5045208;28;20281;-50
2021/12/27 03:44:25;;;;;;;21.35;6.40;;;;;;;;;;5045315;28;20041;-51
2021/12/27 03:46:50;;;;;;;23.95;7.35;;;;;;;;;;5035013;28;20087;-50
2021/12/27 03:49:16;;;;;;;20.52;6.35;;;;;;;;;;5036815;28;20037;-50
2021/12/27 03:51:43;;;;;;;25.75;6.80;;;;;;;;;;5033319;28;20034;-50
2021/12/27 03:54:09;;;;;;;20.90;6.97;;;;;;;;;;5036703;28;20056;-50
2021/12/27 03:56:35;;;;;;;16.30;6.35;;;;;;;;;;5041543;28;20392;-52
2021/12/27 03:59:20;;;;;;;18.95;6.55;;;;;;;;;;5039915;28;20029;-54
2021/12/27 04:01:46;;;;;;;15.65;5.95;;;;;;;;;;5047493;28;20075;-53
2021/12/27 04:04:11;;;;;;;21.42;6.03;;;;;;;;;;5045263;28;20040;-50
2021/12/27 04:06:38;;;;;;;12.70;5.68;;;;;;;;;;5039767;28;20037;-52
2021/12/27 04:09:04;;;;;;;20.25;5.88;;;;;;;;;;5036343;28;20190;-53
2021/12/27 04:11:31;;;;;;;13.65;5.35;;;;;;;;;;5036635;28;20531;-50
2021/12/27 04:13:58;;;;;;;14.10;6.03;;;;;;;;;;5040350;28;20033;-53
2021/12/27 04:16:23;;;;;;;19.25;7.18;;;;;;;;;;5045334;28;20040;-53
2021/12/27 04:18:49;;;;;;;14.95;5.72;;;;;;;;;;5033053;28;20388;-55
2021/12/27 04:21:14;;;;;;;22.65;6.38;;;;;;;;;;5044842;28;20034;-54
2021/12/27 04:23:41;;;;;;;17.60;5.45;;;;;;;;;;5036442;28;20072;-53
2021/12/27 04:26:07;;;;;;;13.80;5.75;;;;;;;;;;5041673;28;20037;-51
2021/12/27 04:28:33;;;;;;;19.33;5.68;;;;;;;;;;5044621;28;20104;-52
2021/12/27 04:30:59;;;;;;;11.88;5.60;;;;;;;;;;5040327;28;20133;-53
2021/12/27 04:33:24;;;;;;;15.18;5.60;;;;;;;;;;5047117;28;20028;-55
2021/12/27 04:35:50;;;;;;;13.23;4.78;;;;;;;;;;5047325;28;20064;-53
2021/12/27 04:38:16;;;;;;;12.85;5.68;;;;;;;;;;5042823;28;20032;-49
2021/12/27 04:40:43;;;;;;;14.57;5.35;;;;;;;;;;5043239;28;20132;-50
2021/12/27 04:43:12;;;;;;;13.68;4.95;;;;;;;;;;5040435;28;20021;-50
2021/12/27 04:45:38;;;;;;;12.05;4.80;;;;;;;;;;5041634;28;20024;-49
2021/12/27 04:48:05;;;;;;;18.80;5.22;;;;;;;;;;5044690;28;20475;-49
2021/12/27 04:50:30;;;;;;;11.70;5.07;;;;;;;;;;5042759;28;20079;-50
2021/12/27 04:52:56;;;;;;;17.00;4.53;;;;;;;;;;5046534;28;20059;-52
2021/12/27 04:55:23;;;;;;;13.63;4.65;;;;;;;;;;5040609;28;20880;-52
2021/12/27 04:57:49;;;;;;;22.90;5.53;;;;;;;;;;5044254;28;20060;-50
2021/12/27 05:00:15;;;;;;;13.27;3.83;;;;;;;;;;5043239;28;20184;-52
2021/12/27 05:02:40;;;;;;;8.10;4.07;;;;;;;;;;5042558;28;20035;-55
2021/12/27 05:05:06;;;;;;;13.32;4.88;;;;;;;;;;5039037;28;20037;-57
2021/12/27 05:07:32;;;;;;;12.05;3.90;;;;;;;;;;5039936;28;20052;-54
2021/12/27 05:09:57;;;;;;;15.05;4.57;;;;;;;;;;5040219;28;20420;-55
2021/12/27 05:12:26;;;;;;;10.20;3.85;;;;;;;;;;5037574;28;20523;-50
2021/12/27 05:14:52;;;;;;;16.25;4.78;;;;;;;;;;5038070;28;20115;-51
2021/12/27 05:17:17;;;;;;;11.85;4.05;;;;;;;;;;5040612;28;20295;-51
2021/12/27 05:19:43;;;;;;;11.70;4.55;;;;;;;;;;5038425;28;20034;-53
2021/12/27 05:22:09;;;;;;;16.10;4.22;;;;;;;;;;5040696;28;20060;-53
2021/12/27 05:24:34;;;;;;;12.88;4.60;;;;;;;;;;5033826;28;20240;-52
2021/12/27 05:27:00;;;;;;;11.73;3.67;;;;;;;;;;5042121;28;20041;-53
2021/12/27 05:29:25;;;;;;;16.92;4.63;;;;;;;;;;5040972;28;20522;-51
2021/12/27 05:31:51;;;;;;;12.25;4.65;;;;;;;;;;5037280;28;20029;-55
2021/12/27 05:34:17;;;;;;;10.25;4.50;;;;;;;;;;5040474;28;20047;-54
2021/12/27 05:36:43;;;;;;;15.73;5.57;;;;;;;;;;5038090;28;20029;-52
2021/12/27 05:39:12;;;;;;;15.95;4.90;;;;;;;;;;5041059;28;20041;-50
2021/12/27 05:41:37;;;;;;;17.10;4.65;;;;;;;;;;5040899;28;20033;-53
2021/12/27 05:44:03;;;;;;;18.90;4.47;;;;;;;;;;5038540;28;20039;-49
2021/12/27 05:46:29;;;;;;;13.57;4.50;;;;;;;;;;5039433;28;20032;-51
2021/12/27 05:48:54;;;;;;;10.57;4.53;;;;;;;;;;5048127;28;20516;-53
2021/12/27 05:51:20;;;;;;;13.15;4.55;;;;;;;;;;5041127;28;20359;-52
2021/12/27 05:53:45;;;;;;;14.95;4.90;;;;;;;;;;5044132;28;20501;-50
2021/12/27 05:56:11;;;;;;;11.95;4.18;;;;;;;;;;5044254;28;20033;-54
2021/12/27 05:58:36;;;;;;;13.15;4.50;;;;;;;;;;5045658;28;20419;-54
2021/12/27 06:01:03;;;;;;;11.32;4.15;;;;;;;;;;5043298;28;20028;-53
2021/12/27 06:03:28;;;;;;;18.88;4.90;;;;;;;;;;5039293;28;20025;-53
2021/12/27 06:05:53;;;;;;;12.90;4.57;;;;;;;;;;5038488;28;20381;-55
2021/12/27 06:08:19;;;;;;;12.25;4.05;;;;;;;;;;5037493;28;20256;-51
2021/12/27 06:10:44;;;;;;;13.77;4.53;;;;;;;;;;5036512;28;20037;-50
2021/12/27 06:13:10;;;;;;;9.88;3.80;;;;;;;;;;5039410;28;20573;-55
2021/12/27 06:15:35;;;;;;;11.80;4.50;;;;;;;;;;5036719;28;20042;-53
2021/12/27 06:18:01;;;;;;;9.85;4.28;;;;;;;;;;5040926;28;20044;-53
2021/12/27 06:20:26;;;;;;;13.05;4.45;;;;;;;;;;5041410;28;20018;-53
2021/12/27 06:22:55;;;;;;;9.73;3.90;;;;;;;;;;5044321;28;20128;-52
2021/12/27 06:25:21;;;;;;;13.57;4.38;;;;;;;;;;5042651;28;20333;-52
2021/12/27 06:27:47;;;;;;;11.32;4.78;;;;;;;;;;5043262;28;20036;-54
2021/12/27 06:30:14;;;;;;;10.23;4.10;;;;;;;;;;5034095;28;20032;-54
2021/12/27 06:32:40;;;;;;;10.77;4.50;;;;;;;;;;5040051;28;20067;-53
2021/12/27 06:35:08;;;;;;;10.18;4.47;;;;;;;;;;5045714;28;20029;-51
2021/12/27 06:37:34;;;;;;;13.30;4.43;;;;;;;;;;5040963;28;20464;-50
2021/12/27 06:39:59;;;;;;;11.55;4.93;;;;;;;;;;5038911;28;20076;-52
2021/12/27 06:42:25;;;;;;;14.35;5.63;;;;;;;;;;5037569;28;20422;-55
2021/12/27 06:44:51;;;;;;;12.55;5.53;;;;;;;;;;5042909;28;20437;-49
2021/12/27 06:47:17;;;;;;;17.30;5.50;;;;;;;;;;5037724;28;20025;-51
2021/12/27 06:49:42;;;;;;;19.77;5.28;;;;;;;;;;5043647;28;20040;-54
2021/12/27 06:52:09;;;;;;;11.95;5.45;;;;;;;;;;5045231;28;20057;-53
2021/12/27 06:54:34;;;;;;;12.32;5.80;;;;;;;;;;5039662;28;20498;-52
2021/12/27 06:57:00;;;;;;;13.07;6.35;;;;;;;;;;5040170;28;20065;-53
2021/12/27 06:59:27;;;;;;;15.48;6.50;;;;;;;;;;5035870;28;20021;-54
2021/12/27 07:01:53;;;;;;;19.70;7.22;;;;;;;;;;5031765;28;20044;-53
2021/12/27 07:04:19;;;;;;;17.88;6.93;;;;;;;;;;5040747;28;20028;-56
2021/12/27 07:06:44;;;;;;;15.43;6.38;;;;;;;;;;5036022;28;20034;-52
2021/12/27 07:09:10;;;;;;;26.98;7.15;;;;;;;;;;5036570;28;20766;-52
2021/12/27 07:11:36;;;;;;;17.90;6.07;;;;;;;;;;5039726;28;20103;-54
2021/12/27 07:14:02;;;;;;;24.70;7.05;;;;;;;;;;5041539;28;20041;-52
2021/12/27 07:16:28;;;;;;;16.50;5.88;;;;;;;;;;5034254;28;20040;-50
2021/12/27 07:18:54;;;;;;;19.55;7.05;;;;;;;;;;5043571;28;20032;-50
2021/12/27 07:21:19;;;;;;;27.08;7.28;;;;;;;;;;5041705;28;20021;-51
2021/12/27 07:23:45;;;;;;;14.85;6.65;;;;;;;;;;5033887;28;20056;-52
2021/12/27 07:26:11;;;;;;;21.15;7.13;;;;;;;;;;5036472;28;20515;-49
2021/12/27 07:28:36;;;;;;;23.92;6.43;;;;;;;;;;5034780;28;20060;-50
2021/12/27 07:31:02;;;;;;;26.52;6.60;;;;;;;;;;5041083;28;20044;-53
2021/12/27 07:33:27;;;;;;;20.02;6.20;;;;;;;;;;5031846;28;20033;-53
2021/12/27 07:35:53;;;;;;;28.83;7.53;;;;;;;;;;5040224;28;20033;-53
2021/12/27 07:38:18;;;;;;;19.73;6.88;;;;;;;;;;5042946;28;20148;-56
2021/12/27 07:40:44;;;;;;;19.58;5.70;;;;;;;;;;5042018;28;20549;-52
2021/12/27 07:43:09;;;;;;;15.73;6.47;;;;;;;;;;5038710;28;20640;-52
2021/12/27 07:45:35;;;;;;;18.50;6.47;;;;;;;;;;5041170;28;20483;-53
2021/12/27 07:48:01;;;;;;;18.80;7.32;;;;;;;;;;5039538;28;20044;-53
2021/12/27 07:50:26;;;;;;;24.25;7.45;;;;;;;;;;5037298;28;20065;-50
2021/12/27 07:52:52;;;;;;;28.30;6.82;;;;;;;;;;5041092;28;20403;-50
2021/12/27 07:55:19;;;;;;;26.58;6.75;;;;;;;;;;5036872;28;20445;-49
2021/12/27 07:57:44;;;;;;;24.45;6.63;;;;;;;;;;5045052;28;20032;-51
2021/12/27 08:00:10;;;;;;;21.90;7.30;;;;;;;;;;5044409;28;20601;-53
2021/12/27 08:02:37;;;;;;;15.70;6.38;;;;;;;;;;5038097;28;20033;-51
2021/12/27 08:05:04;;;;;;;29.58;6.88;;;;;;;;;;5035798;28;20088;-49
2021/12/27 08:07:30;;;;;;;20.98;6.55;;;;;;;;;;5031075;28;20029;-53
2021/12/27 08:09:56;;;;;;;19.85;6.70;;;;;;;;;;5034892;28;20455;-51
2021/12/27 08:12:21;;;;;;;22.85;6.85;;;;;;;;;;5036918;28;20037;-52
2021/12/27 08:14:47;;;;;;;24.80;6.43;;;;;;;;;;5039819;28;20115;-52
2021/12/27 08:17:12;;;;;;;16.05;6.13;;;;;;;;;;5035268;28;20043;-53
2021/12/27 08:19:38;;;;;;;15.75;5.93;;;;;;;;;;5039519;28;20017;-52
2021/12/27 08:22:03;;;;;;;18.40;6.38;;;;;;;;;;5037819;28;20089;-53
2021/12/27 08:24:29;;;;;;;28.38;7.05;;;;;;;;;;5039534;28;20030;-53
2021/12/27 08:26:54;;;;;;;28.08;7.18;;;;;;;;;;5041032;28;20035;-52
2021/12/27 08:29:20;;;;;;;19.35;7.18;;;;;;;;;;5047256;28;20060;-53
2021/12/27 08:31:46;;;;;;;22.33;7.80;;;;;;;;;;5037914;28;20546;-52
2021/12/27 08:34:11;;;;;;;21.55;7.63;;;;;;;;;;5039824;28;20492;-51
2021/12/27 08:36:37;;;;;;;33.42;7.72;;;;;;;;;;5037293;28;20044;-51
2021/12/27 08:39:03;;;;;;;21.05;6.47;;;;;;;;;;5040893;28;20029;-50
2021/12/27 08:41:28;;;;;;;32.83;7.45;;;;;;;;;;5034868;28;20056;-50
2021/12/27 08:43:56;;;;;;;34.00;7.63;;;;;;;;;;5038405;28;21040;-50
2021/12/27 08:46:22;;;;;;;23.25;7.32;;;;;;;;;;5036884;28;20036;-49
2021/12/27 08:48:47;;;;;;;20.20;7.15;;;;;;;;;;5037778;28;20098;-53
2021/12/27 08:51:13;;;;;;;29.27;6.70;;;;;;;;;;5039913;28;20029;-50
2021/12/27 08:53:39;;;;;;;16.65;7.43;;;;;;;;;;5036374;28;20492;-51
2021/12/27 08:56:05;;;;;;;20.90;6.85;;;;;;;;;;5042436;28;20032;-54
2021/12/27 08:58:31;;;;;;;21.92;7.38;;;;;;;;;;5032342;28;20033;-52
2021/12/27 09:00:57;;;;;;;33.75;6.15;;;;;;;;;;5035974;28;20032;-54
2021/12/27 09:03:22;;;;;;;25.83;6.55;;;;;;;;;;5043792;28;20119;-54
2021/12/27 09:05:48;;;;;;;28.23;6.57;;;;;;;;;;5039831;28;20400;-52
2021/12/27 09:08:13;;;;;;;27.98;7.07;;;;;;;;;;5036173;28;20507;-53
2021/12/27 09:10:39;;;;;;;25.73;6.93;;;;;;;;;;5033831;28;20033;-56
2021/12/27 09:13:05;;;;;;;32.72;6.40;;;;;;;;;;5040853;28;20029;-52
2021/12/27 09:15:31;;;;;;;26.98;7.10;;;;;;;;;;5034555;28;20045;-54
2021/12/27 09:17:57;;;;;;;25.27;6.15;;;;;;;;;;5034882;28;20068;-53
2021/12/27 09:20:25;;;;;;;29.92;6.95;;;;;;;;;;5039995;28;20582;-55
2021/12/27 09:22:51;;;;;;;29.10;6.45;;;;;;;;;;5039277;28;20034;-55
2021/12/27 09:25:16;;;;;;;26.13;6.97;;;;;;;;;;5041624;28;20036;-54
2021/12/27 09:27:42;;;;;;;21.85;6.88;;;;;;;;;;5034148;28;20032;-56
2021/12/27 09:30:08;;;;;;;30.75;7.03;;;;;;;;;;5034744;28;20039;-55
2021/12/27 09:32:34;;;;;;;23.20;6.30;;;;;;;;;;5037992;28;20111;-53
2021/12/27 09:34:59;;;;;;;20.33;6.15;;;;;;;;;;5044264;28;20190;-53
2021/12/27 09:37:25;;;;;;;28.17;6.55;;;;;;;;;;5039571;28;20618;-51
2021/12/27 09:39:53;;;;;;;31.60;6.93;;;;;;;;;;5037155;28;20031;-53
2021/12/27 09:42:23;;;;;;;20.15;6.38;;;;;;;;;;5038691;28;20044;-52
2021/12/27 09:44:50;;;;;;;20.38;6.60;;;;;;;;;;5042674;28;20088;-50
2021/12/27 09:47:16;;;;;;;29.80;7.00;;;;;;;;;;5038615;28;20492;-51
2021/12/27 09:49:42;;;;;;;25.55;7.75;;;;;;;;;;5039174;28;20098;-49
2021/12/27 09:52:07;;;;;;;28.23;7.05;;;;;;;;;;5033780;28;20026;-53
2021/12/27 09:54:33;;;;;;;36.60;5.80;;;;;;;;;;5038851;28;20133;-50
2021/12/27 09:56:58;;;;;;;24.33;5.28;;;;;;;;;;5041737;28;20037;-53
2021/12/27 09:59:24;;;;;;;28.27;5.38;;;;;;;;;;5039966;28;20025;-49
2021/12/27 10:01:52;;;;;;;22.65;4.43;;;;;;;;;;5038976;28;20036;-53
2021/12/27 10:04:18;;;;;;;20.52;3.72;;;;;;;;;;5044148;28;20029;-54
2021/12/27 10:06:44;;;;;;;22.63;3.67;;;;;;;;;;5037850;28;20021;-52
2021/12/27 10:09:10;;;;;;;17.23;3.47;;;;;;;;;;5031053;28;20048;-54
2021/12/27 10:11:42;;;;;;;19.35;3.28;;;;;;;;;;5034963;28;20057;-54
2021/12/27 10:14:15;;;;;;;23.20;3.00;;;;;;;;;;5034505;28;20037;-54
2021/12/27 10:16:54;;;;;;;32.35;4.88;;;;;;;;;;5039728;28;20475;-53
2021/12/27 10:19:23;;;;;;;31.17;4.07;;;;;;;;;;5034293;28;20030;-53
2021/12/27 10:21:52;;;;;;;19.88;5.68;;;;;;;;;;5035376;28;20034;-52
2021/12/27 10:24:20;;;;;;;21.58;3.83;;;;;;;;;;5033941;28;20512;-51
2021/12/27 10:26:49;;;;;;;11.98;2.58;;;;;;;;;;5037071;28;20033;-53
2021/12/27 10:29:27;;;;;;;13.15;2.45;;;;;;;;;;5040377;28;20390;-54
2021/12/27 10:32:01;;;;;;;21.67;3.28;;;;;;;;;;5039208;28;20445;-53
2021/12/27 10:34:45;;;;;;;22.85;3.92;;;;;;;;;;5040193;28;20031;-54
2021/12/27 10:37:18;;;;;;;20.25;3.05;;;;;;;;;;5039214;28;20029;-55
2021/12/27 10:40:07;;;;;;;23.33;3.42;;;;;;;;;;5038380;28;20073;-54
2021/12/27 10:42:35;;;;;;;13.18;2.28;;;;;;;;;;5036639;28;20491;-54
2021/12/27 10:45:06;;;;;;;23.58;2.42;;;;;;;;;;5040682;28;20506;-54
2021/12/27 10:47:34;;;;;;;25.60;3.15;;;;;;;;;;5040927;28;20048;-54
2021/12/27 10:50:05;;;;;;;24.52;2.72;;;;;;;;;;5041346;28;20029;-53
2021/12/27 10:52:50;;;;;;;28.88;2.55;;;;;;;;;;5047023;28;20056;-55
2021/12/27 10:55:19;;;;;;;16.00;2.20;;;;;;;;;;5040518;28;20079;-55
2021/12/27 10:57:46;;;;;;;12.02;2.00;;;;;;;;;;5037111;28;20503;-50
2021/12/27 11:00:39;;;;;;;8.32;2.13;;;;;;;;;;5039776;28;20119;-52
2021/12/27 11:03:05;;;;;;;16.40;1.70;;;;;;;;;;5038016;28;20386;-49
2021/12/27 11:05:34;;;;;;;21.92;2.55;;;;;;;;;;5041256;28;20940;-51
2021/12/27 11:08:03;;;;;;;30.35;2.20;;;;;;;;;;5036446;28;20033;-54
2021/12/27 11:10:31;;;;;;;16.02;2.15;;;;;;;;;;5036764;28;20084;-53
2021/12/27 11:12:59;;;;;;;17.70;2.03;;;;;;;;;;5036251;28;20104;-55
2021/12/27 11:15:30;;;;;;;21.73;2.67;;;;;;;;;;5039941;28;20024;-54
2021/12/27 11:17:56;;;;;;;8.85;2.63;;;;;;;;;;5033200;28;20021;-54
2021/12/27 11:20:22;;;;;;;15.18;2.72;;;;;;;;;;5035501;28;20032;-54
2021/12/27 11:22:51;;;;;;;8.02;1.90;;;;;;;;;;5031265;28;20037;-53
2021/12/27 11:25:28;;;;;;;14.40;2.17;;;;;;;;;;5031011;28;20553;-55
2021/12/27 11:27:54;;;;;;;16.70;1.73;;;;;;;;;;5035547;28;20297;-54
2021/12/27 11:30:23;;;;;;;14.82;2.53;;;;;;;;;;5031701;28;20542;-54
2021/12/27 11:33:12;;;;;;;11.40;1.90;;;;;;;;;;5036402;28;20070;-50
2021/12/27 11:35:59;;;;;;;16.38;2.25;;;;;;;;;;5031839;28;20063;-54
2021/12/27 11:38:36;;;;;;;17.67;1.45;;;;;;;;;;5035964;28;20033;-50
2021/12/27 11:41:05;;;;;;;25.27;2.20;;;;;;;;;;5029729;28;20111;-51
2021/12/27 11:44:02;;;;;;;19.58;2.60;;;;;;;;;;5035221;28;20488;-52
2021/12/27 11:46:31;;;;;;;16.23;2.60;;;;;;;;;;5036346;28;20041;-50
2021/12/27 11:48:59;;;;;;;11.93;2.28;;;;;;;;;;5032533;28;20126;-53
2021/12/27 11:51:35;;;;;;;12.27;2.85;;;;;;;;;;5035322;28;20582;-52
2021/12/27 11:54:04;;;;;;;24.00;2.28;;;;;;;;;;5036908;28;20567;-54
2021/12/27 11:56:39;;;;;;;13.55;2.80;;;;;;;;;;5040646;28;20025;-54
2021/12/27 11:59:42;;;;;;;11.93;2.72;;;;;;;;;;5029732;28;20069;-52
2021/12/27 12:02:13;;;;;;;;;;;;;;;;;;5013504;28;20098;-51
2021/12/27 12:04:50;;;;;;;18.23;2.47;;;;;;;;;;5033581;28;20319;-50
2021/12/27 12:07:34;;;;;;;8.05;2.30;;;;;;;;;;5040525;28;20278;-51
2021/12/27 12:10:20;;;;;;;13.38;2.58;;;;;;;;;;5040158;28;20069;-51
2021/12/27 12:13:22;;;;;;;17.52;2.33;;;;;;;;;;5038667;28;20549;-52
2021/12/27 12:16:06;;;;;;;6.83;1.70;;;;;;;;;;5041012;28;20127;-51
2021/12/27 12:18:32;;;;;;;15.70;1.75;;;;;;;;;;5043232;28;20040;-54
2021/12/27 12:20:59;;;;;;;16.17;3.65;;;;;;;;;;5042696;28;20047;-55
2021/12/27 12:23:25;;;;;;;18.05;2.78;;;;;;;;;;5044359;28;20107;-54
2021/12/27 12:26:09;;;;;;;5.60;1.52;;;;;;;;;;5041446;28;20037;-50
2021/12/27 12:28:35;;;;;;;18.13;2.97;;;;;;;;;;5037441;28;20112;-55
2021/12/27 12:31:00;;;;;;;16.52;3.00;;;;;;;;;;5039708;28;20433;-55
2021/12/27 12:33:28;;;;;;;18.63;2.55;;;;;;;;;;5038526;28;20250;-54
2021/12/27 12:36:00;;;;;;;8.90;2.22;;;;;;;;;;5037127;28;20037;-50
2021/12/27 12:38:38;;;;;;;12.75;2.70;;;;;;;;;;5036317;28;20035;-51
2021/12/27 12:41:23;;;;;;;10.88;2.20;;;;;;;;;;5037048;28;20441;-52
2021/12/27 12:43:51;;;;;;;8.88;1.85;;;;;;;;;;5033633;28;20064;-54
2021/12/27 12:46:25;;;;;;;12.27;1.83;;;;;;;;;;5038844;28;20025;-52
2021/12/27 12:49:01;;;;;;;18.38;2.70;;;;;;;;;;5038798;28;20037;-52
2021/12/27 12:51:39;;;;;;;10.07;2.10;;;;;;;;;;5031572;28;20033;-53
2021/12/27 12:54:34;;;;;;;6.45;2.15;;;;;;;;;;5040408;28;20048;-53
2021/12/27 12:57:14;;;;;;;23.83;3.08;;;;;;;;;;5040441;28;20519;-53
2021/12/27 12:59:43;;;;;;;19.30;4.10;;;;;;;;;;5039249;28;20271;-54
2021/12/27 13:02:09;;;;;;;12.93;2.83;;;;;;;;;;5032489;28;20485;-51
2021/12/27 13:04:55;;;;;;;12.85;2.45;;;;;;;;;;5031517;28;20030;-50
2021/12/27 13:07:44;;;;;;;9.93;2.58;;;;;;;;;;5031092;28;20041;-52
2021/12/27 13:10:31;;;;;;;16.67;3.10;;;;;;;;;;5034256;28;20479;-51
2021/12/27 13:12:58;;;;;;;20.48;3.38;;;;;;;;;;5041099;28;20095;-54
2021/12/27 13:15:28;;;;;;;9.30;2.63;;;;;;;;;;5042732;28;20028;-53
2021/12/27 13:18:08;;;;;;;13.75;3.58;;;;;;;;;;5034424;28;20109;-52
2021/12/27 13:20:39;;;;;;;19.08;3.45;;;;;;;;;;5033692;28;20032;-53
2021/12/27 13:23:06;;;;;;;17.67;2.65;;;;;;;;;;5039759;28;20124;-54
2021/12/27 13:25:35;;;;;;;22.90;3.50;;;;;;;;;;5041874;28;20229;-54
2021/12/27 13:28:07;;;;;;;18.38;3.35;;;;;;;;;;5044900;28;20024;-54
2021/12/27 13:30:54;;;;;;;19.90;3.10;;;;;;;;;;5034676;28;20025;-54
2021/12/27 13:33:40;;;;;;;8.68;2.67;;;;;;;;;;5042807;28;20492;-53
2021/12/27 13:36:08;;;;;;;17.77;3.20;;;;;;;;;;5038661;28;20112;-53
2021/12/27 13:38:56;;;;;;;16.80;3.20;;;;;;;;;;5038997;28;20464;-50
2021/12/27 13:41:26;;;;;;;13.43;3.45;;;;;;;;;;5043974;28;20036;-52
2021/12/27 13:43:54;;;;;;;19.30;4.97;;;;;;;;;;5039138;28;20033;-51
2021/12/27 13:46:23;;;;;;;12.80;3.75;;;;;;;;;;5042747;28;20098;-53
2021/12/27 13:48:50;;;;;;;11.02;3.40;;;;;;;;;;5035152;28;20033;-51
2021/12/27 13:51:25;;;;;;;6.90;2.90;;;;;;;;;;5037200;28;20033;-52
2021/12/27 13:54:02;;;;;;;11.23;3.15;;;;;;;;;;5039507;28;20017;-53
2021/12/27 13:56:30;;;;;;;13.77;3.38;;;;;;;;;;5038139;28;20036;-49
2021/12/27 13:59:06;;;;;;;23.77;3.85;;;;;;;;;;5035372;28;20191;-51
2021/12/27 14:01:32;;;;;;;13.45;3.10;;;;;;;;;;5038700;28;20028;-50
2021/12/27 14:04:12;;;;;;;14.75;3.35;;;;;;;;;;5040226;28;20511;-55
2021/12/27 14:06:43;;;;;;;13.18;2.88;;;;;;;;;;5037841;28;20033;-54
2021/12/27 14:09:09;;;;;;;19.38;3.42;;;;;;;;;;5034781;28;20107;-51
2021/12/27 14:11:51;;;;;;;10.20;2.90;;;;;;;;;;5041844;28;20041;-53
2021/12/27 14:14:33;;;;;;;14.27;2.60;;;;;;;;;;5039985;28;20039;-51
2021/12/27 14:17:26;;;;;;;16.40;3.00;;;;;;;;;;5038430;28;20456;-53
2021/12/27 14:20:00;;;;;;;15.40;3.03;;;;;;;;;;5041578;28;20048;-51
2021/12/27 14:22:36;;;;;;;8.77;2.35;;;;;;;;;;5036020;28;20116;-53
2021/12/27 14:25:03;;;;;;;10.40;2.35;;;;;;;;;;5043603;28;20068;-53
2021/12/27 14:27:49;;;;;;;8.45;2.13;;;;;;;;;;5041769;28;20021;-51
2021/12/27 14:30:22;;;;;;;17.45;2.53;;;;;;;;;;5033260;28;20017;-49
2021/12/27 14:32:55;;;;;;;13.13;2.25;;;;;;;;;;5040802;28;20041;-54
2021/12/27 14:35:38;;;;;;;11.05;1.85;;;;;;;;;;5042888;28;20116;-54
2021/12/27 14:38:18;;;;;;;9.75;1.52;;;;;;;;;;5041343;28;20029;-52
2021/12/27 14:41:03;;;;;;;8.20;1.83;;;;;;;;;;5037786;28;20060;-51